Time;durP1;ratioP1;P1;durP2;ratioP2;P2;SDS_P1;SDS_P2;PMS_P1;PMS_P2;Temp;Humidity;BMP_temperature;BMP_pressure;BME280_temperature;BME280_humidity;BME280_pressure;Samples;Min_cycle;Max_cycle;Signal;HPM_P1;HPM_P2
2023/07/09 00:02:00;;;;;;;9.40;5.40;;;;;;;;;;5013292;28;20450;-64
2023/07/09 00:04:28;;;;;;;5.67;5.27;;;;;;;;;;5012453;28;20432;-64
2023/07/09 00:06:58;;;;;;;6.40;6.00;;;;;;;;;;5011544;28;20416;-64
2023/07/09 00:09:26;;;;;;;8.00;5.37;;;;;;;;;;5012847;28;20445;-64
2023/07/09 00:11:54;;;;;;;5.30;4.80;;;;;;;;;;5013075;28;20412;-64
2023/07/09 00:14:21;;;;;;;6.00;5.50;;;;;;;;;;5012688;28;20470;-64
2023/07/09 00:16:50;;;;;;;5.97;5.57;;;;;;;;;;5013035;28;20429;-64
2023/07/09 00:19:20;;;;;;;9.00;6.30;;;;;;;;;;5013302;28;20417;-64
2023/07/09 00:21:49;;;;;;;6.67;5.90;;;;;;;;;;5012875;28;20412;-64
2023/07/09 00:24:15;;;;;;;6.63;6.03;;;;;;;;;;5012803;28;20426;-64
2023/07/09 00:26:41;;;;;;;6.23;5.83;;;;;;;;;;5012700;28;20450;-64
2023/07/09 00:29:11;;;;;;;7.40;5.73;;;;;;;;;;5012473;28;20424;-64
2023/07/09 00:31:41;;;;;;;7.73;5.60;;;;;;;;;;5012504;28;20424;-64
2023/07/09 00:34:14;;;;;;;6.00;5.43;;;;;;;;;;5012529;28;21035;-64
2023/07/09 00:36:45;;;;;;;6.03;5.53;;;;;;;;;;5011253;28;21017;-64
2023/07/09 00:39:18;;;;;;;7.07;5.70;;;;;;;;;;5012701;28;20780;-64
2023/07/09 00:41:47;;;;;;;7.33;5.47;;;;;;;;;;5012599;28;20451;-64
2023/07/09 00:44:44;;;;;;;8.37;5.80;;;;;;;;;;5011325;28;20547;-64
2023/07/09 00:47:10;;;;;;;7.10;4.87;;;;;;;;;;5011852;28;20432;-64
2023/07/09 00:49:44;;;;;;;8.67;5.77;;;;;;;;;;5012510;28;20926;-64
2023/07/09 00:52:33;;;;;;;6.10;5.50;;;;;;;;;;5012611;28;20425;-64
2023/07/09 00:55:00;;;;;;;11.50;5.60;;;;;;;;;;5012203;28;20476;-64
2023/07/09 00:57:27;;;;;;;10.00;5.63;;;;;;;;;;5012411;28;20444;-64
2023/07/09 00:59:59;;;;;;;5.67;5.27;;;;;;;;;;5012064;28;20420;-64
2023/07/09 01:02:25;;;;;;;5.80;5.43;;;;;;;;;;5010991;28;20927;-64
2023/07/09 01:05:00;;;;;;;5.30;4.90;;;;;;;;;;5012108;28;20562;-64
2023/07/09 01:07:27;;;;;;;10.03;5.30;;;;;;;;;;5012849;28;20420;-64
2023/07/09 01:10:18;;;;;;;5.37;4.90;;;;;;;;;;5012061;28;20435;-64
2023/07/09 01:13:21;;;;;;;8.40;5.70;;;;;;;;;;5009145;28;20436;-64
2023/07/09 01:15:48;;;;;;;6.40;5.20;;;;;;;;;;5011615;28;20601;-64
2023/07/09 01:27:54;;;;;;;6.37;5.73;;;;;;;;;;5014757;28;20921;-64
2023/07/09 01:30:23;;;;;;;6.03;5.73;;;;;;;;;;5018614;28;20825;-64
2023/07/09 01:32:49;;;;;;;6.80;6.30;;;;;;;;;;5018369;28;20941;-64
2023/07/09 01:35:17;;;;;;;6.43;5.80;;;;;;;;;;5018411;28;20895;-64
2023/07/09 01:37:43;;;;;;;6.40;5.07;;;;;;;;;;5018386;28;20406;-64
2023/07/09 01:40:10;;;;;;;6.33;5.40;;;;;;;;;;5018223;28;20430;-64
2023/07/09 01:42:38;;;;;;;5.50;5.20;;;;;;;;;;5017182;28;20555;-64
2023/07/09 01:45:04;;;;;;;6.43;5.90;;;;;;;;;;5017124;28;20518;-64
2023/07/09 01:47:31;;;;;;;6.03;5.27;;;;;;;;;;5018252;28;20522;-65
2023/07/09 01:49:57;;;;;;;6.77;6.07;;;;;;;;;;5017140;28;20433;-64
2023/07/09 01:52:24;;;;;;;6.00;5.40;;;;;;;;;;5018351;28;20848;-64
2023/07/09 01:54:50;;;;;;;9.37;6.30;;;;;;;;;;5017958;28;20461;-64
2023/07/09 01:57:22;;;;;;;6.57;5.97;;;;;;;;;;5018386;28;20871;-64
2023/07/09 01:59:49;;;;;;;6.17;5.70;;;;;;;;;;5018199;28;20920;-64
2023/07/09 02:02:18;;;;;;;6.40;5.80;;;;;;;;;;5018376;28;20405;-64
2023/07/09 02:04:45;;;;;;;6.40;5.80;;;;;;;;;;5018155;28;20475;-64
2023/07/09 02:07:11;;;;;;;6.57;5.70;;;;;;;;;;5018288;28;20889;-64
2023/07/09 02:09:39;;;;;;;12.43;6.33;;;;;;;;;;5018308;28;20505;-64
2023/07/09 02:12:05;;;;;;;7.23;6.63;;;;;;;;;;5018173;28;20423;-64
2023/07/09 02:14:31;;;;;;;8.40;6.27;;;;;;;;;;5018116;28;21050;-64
2023/07/09 02:16:57;;;;;;;10.17;5.80;;;;;;;;;;5018096;28;20951;-64
2023/07/09 02:19:23;;;;;;;6.33;5.83;;;;;;;;;;5018107;28;20410;-64
2023/07/09 02:21:49;;;;;;;7.40;5.73;;;;;;;;;;5017961;28;20425;-64
2023/07/09 02:24:17;;;;;;;6.33;5.77;;;;;;;;;;5018168;28;20413;-64
2023/07/09 02:26:44;;;;;;;8.73;5.73;;;;;;;;;;5018203;28;20453;-64
2023/07/09 02:29:10;;;;;;;8.13;6.77;;;;;;;;;;5014531;28;20427;-64
2023/07/09 02:31:36;;;;;;;6.60;6.00;;;;;;;;;;5014811;28;20527;-64
2023/07/09 02:34:03;;;;;;;6.53;6.00;;;;;;;;;;5014937;28;20464;-64
2023/07/09 02:36:29;;;;;;;8.00;6.20;;;;;;;;;;5014869;28;20836;-64
2023/07/09 02:38:55;;;;;;;6.53;5.97;;;;;;;;;;5014838;28;20893;-64
2023/07/09 02:41:21;;;;;;;10.40;5.77;;;;;;;;;;5014689;28;20447;-64
2023/07/09 02:43:49;;;;;;;7.23;5.97;;;;;;;;;;5014661;28;20781;-64
2023/07/09 02:46:20;;;;;;;8.93;6.10;;;;;;;;;;5014605;28;20413;-64
2023/07/09 02:48:48;;;;;;;6.17;5.70;;;;;;;;;;5014696;28;20451;-64
2023/07/09 02:51:14;;;;;;;6.20;5.63;;;;;;;;;;5013313;28;20506;-64
2023/07/09 02:53:40;;;;;;;6.23;5.73;;;;;;;;;;5014507;28;20482;-64
2023/07/09 02:56:06;;;;;;;7.37;6.17;;;;;;;;;;5014248;28;20424;-64
2023/07/09 02:58:34;;;;;;;7.20;6.27;;;;;;;;;;5014518;28;20845;-64
2023/07/09 03:01:03;;;;;;;9.33;5.43;;;;;;;;;;5014259;28;20520;-64
2023/07/09 03:03:29;;;;;;;5.93;5.50;;;;;;;;;;5014443;28;20885;-64
2023/07/09 03:05:55;;;;;;;6.43;5.93;;;;;;;;;;5014205;28;20437;-64
2023/07/09 03:08:21;;;;;;;6.87;6.30;;;;;;;;;;5014278;28;20471;-64
2023/07/09 03:10:47;;;;;;;6.93;6.23;;;;;;;;;;5014048;28;20456;-64
2023/07/09 03:13:13;;;;;;;6.27;5.87;;;;;;;;;;5014030;28;20444;-64
2023/07/09 03:15:41;;;;;;;8.77;6.37;;;;;;;;;;5013945;28;20472;-64
2023/07/09 03:18:07;;;;;;;9.63;6.13;;;;;;;;;;5012713;28;20463;-64
2023/07/09 03:20:33;;;;;;;9.20;6.30;;;;;;;;;;5013986;28;20431;-65
2023/07/09 03:22:59;;;;;;;14.70;6.27;;;;;;;;;;5013820;28;20469;-64
2023/07/09 03:25:25;;;;;;;6.80;5.60;;;;;;;;;;5012717;28;20500;-64
2023/07/09 03:27:51;;;;;;;7.80;6.10;;;;;;;;;;5013907;28;20428;-64
2023/07/09 03:30:17;;;;;;;6.07;5.57;;;;;;;;;;5011975;28;20460;-64
2023/07/09 03:32:44;;;;;;;7.90;5.63;;;;;;;;;;5013812;28;20421;-64
2023/07/09 03:35:10;;;;;;;7.83;6.20;;;;;;;;;;5013679;28;20464;-64
2023/07/09 03:37:37;;;;;;;10.50;5.40;;;;;;;;;;5013462;28;20430;-64
2023/07/09 03:40:04;;;;;;;11.30;5.73;;;;;;;;;;5012616;28;20883;-64
2023/07/09 03:42:30;;;;;;;8.57;5.90;;;;;;;;;;5013496;28;20548;-64
2023/07/09 03:44:56;;;;;;;6.60;6.07;;;;;;;;;;5013559;28;20497;-64
2023/07/09 03:47:22;;;;;;;7.63;6.37;;;;;;;;;;5013589;28;20900;-64
2023/07/09 03:49:48;;;;;;;6.90;5.37;;;;;;;;;;5013578;28;20421;-65
2023/07/09 03:52:17;;;;;;;6.53;5.90;;;;;;;;;;5013294;28;20901;-65
2023/07/09 03:54:43;;;;;;;5.60;5.20;;;;;;;;;;5013049;28;20480;-65
2023/07/09 03:57:09;;;;;;;4.57;4.27;;;;;;;;;;5013459;28;20408;-64
2023/07/09 03:59:35;;;;;;;5.90;5.40;;;;;;;;;;5013395;28;20415;-64
2023/07/09 04:02:03;;;;;;;6.27;5.20;;;;;;;;;;5013110;28;20458;-64
2023/07/09 04:04:29;;;;;;;6.57;5.17;;;;;;;;;;5013183;28;20440;-64
2023/07/09 04:06:55;;;;;;;7.80;5.30;;;;;;;;;;5011880;28;20915;-64
2023/07/09 04:09:22;;;;;;;12.43;5.80;;;;;;;;;;5012954;28;20501;-64
2023/07/09 04:11:48;;;;;;;8.50;5.50;;;;;;;;;;5011775;28;20527;-64
2023/07/09 04:14:14;;;;;;;10.43;5.60;;;;;;;;;;5013025;28;20522;-64
2023/07/09 04:16:40;;;;;;;10.60;5.30;;;;;;;;;;5012977;28;20416;-64
2023/07/09 04:19:06;;;;;;;5.70;5.17;;;;;;;;;;5013007;28;20433;-64
2023/07/09 04:21:32;;;;;;;6.77;5.50;;;;;;;;;;5013155;28;20831;-64
2023/07/09 04:23:58;;;;;;;8.10;5.47;;;;;;;;;;5012762;28;20412;-64
2023/07/09 04:26:24;;;;;;;15.73;6.00;;;;;;;;;;5011423;28;20419;-64
2023/07/09 04:28:50;;;;;;;6.77;5.60;;;;;;;;;;5012684;28;20786;-64
2023/07/09 04:31:18;;;;;;;6.50;6.00;;;;;;;;;;5012736;28;20887;-64
2023/07/09 04:33:45;;;;;;;5.67;5.17;;;;;;;;;;5012545;28;20781;-64
2023/07/09 04:36:12;;;;;;;6.30;5.70;;;;;;;;;;5012667;28;20424;-64
2023/07/09 04:38:38;;;;;;;5.77;5.23;;;;;;;;;;5012455;28;20412;-64
2023/07/09 04:41:05;;;;;;;5.87;5.47;;;;;;;;;;5012674;28;20778;-65
2023/07/09 04:43:31;;;;;;;6.20;5.60;;;;;;;;;;5012305;28;20845;-64
2023/07/09 04:45:57;;;;;;;5.50;5.10;;;;;;;;;;5012454;28;20416;-64
2023/07/09 04:48:25;;;;;;;9.07;5.87;;;;;;;;;;5012332;28;20936;-64
2023/07/09 04:50:52;;;;;;;13.00;5.67;;;;;;;;;;5012011;28;20445;-64
2023/07/09 04:53:18;;;;;;;5.67;5.07;;;;;;;;;;5012445;28;20446;-64
2023/07/09 04:55:44;;;;;;;6.57;5.37;;;;;;;;;;5012086;28;21011;-64
2023/07/09 04:58:10;;;;;;;6.07;5.60;;;;;;;;;;5012451;28;20445;-64
2023/07/09 05:00:36;;;;;;;5.90;5.40;;;;;;;;;;5012262;28;20551;-64
2023/07/09 05:03:02;;;;;;;7.83;5.10;;;;;;;;;;5012481;28;20419;-64
2023/07/09 05:05:28;;;;;;;5.33;4.93;;;;;;;;;;5012282;28;20418;-64
2023/07/09 05:07:54;;;;;;;5.40;4.90;;;;;;;;;;5012199;28;20448;-64
2023/07/09 05:10:20;;;;;;;5.47;4.90;;;;;;;;;;5012102;28;20430;-64
2023/07/09 05:12:53;;;;;;;9.13;5.17;;;;;;;;;;5012111;28;20437;-64
2023/07/09 05:15:20;;;;;;;6.30;5.77;;;;;;;;;;5010573;28;20983;-64
2023/07/09 05:17:46;;;;;;;9.30;5.97;;;;;;;;;;5012119;28;20516;-64
2023/07/09 05:20:13;;;;;;;5.60;5.10;;;;;;;;;;5012379;28;20790;-64
2023/07/09 05:22:41;;;;;;;8.43;5.90;;;;;;;;;;5012088;28;20420;-64
2023/07/09 05:25:07;;;;;;;9.37;7.50;;;;;;;;;;5012086;28;20451;-64
2023/07/09 05:27:33;;;;;;;7.20;4.83;;;;;;;;;;5012018;28;20430;-64
2023/07/09 05:30:00;;;;;;;8.40;5.60;;;;;;;;;;5010755;28;20426;-64
2023/07/09 05:32:28;;;;;;;10.90;5.20;;;;;;;;;;5012029;28;20418;-64
2023/07/09 05:34:57;;;;;;;8.13;5.57;;;;;;;;;;5011862;28;20972;-64
2023/07/09 05:37:23;;;;;;;5.60;5.10;;;;;;;;;;5011660;28;20425;-64
2023/07/09 05:39:49;;;;;;;6.10;5.23;;;;;;;;;;5011530;28;20402;-65
2023/07/09 05:42:14;;;;;;;7.97;6.07;;;;;;;;;;5011788;28;20453;-66
2023/07/09 05:44:43;;;;;;;8.20;5.37;;;;;;;;;;5011292;28;20427;-66
2023/07/09 05:47:09;;;;;;;8.53;5.37;;;;;;;;;;5011469;28;20489;-66
2023/07/09 05:49:35;;;;;;;6.47;5.87;;;;;;;;;;5010098;28;20450;-66
2023/07/09 05:52:01;;;;;;;6.17;5.23;;;;;;;;;;5011730;28;20902;-66
2023/07/09 05:54:27;;;;;;;12.67;5.50;;;;;;;;;;5011644;28;20528;-66
2023/07/09 05:56:53;;;;;;;8.90;6.43;;;;;;;;;;5011740;28;20904;-66
2023/07/09 05:59:19;;;;;;;8.97;6.13;;;;;;;;;;5011322;28;20414;-66
2023/07/09 06:01:45;;;;;;;35.27;31.63;;;;;;;;;;5011208;28;20457;-66
2023/07/09 06:04:13;;;;;;;5.33;4.90;;;;;;;;;;5014000;28;20408;-66
2023/07/09 06:06:41;;;;;;;5.33;5.03;;;;;;;;;;5015401;28;20419;-66
2023/07/09 06:09:09;;;;;;;5.97;5.03;;;;;;;;;;5015018;28;20450;-66
2023/07/09 06:11:35;;;;;;;6.10;5.70;;;;;;;;;;5013295;28;20438;-66
2023/07/09 06:14:02;;;;;;;5.10;4.60;;;;;;;;;;5014822;28;20927;-66
2023/07/09 06:16:28;;;;;;;8.13;5.57;;;;;;;;;;5013531;28;20520;-66
2023/07/09 06:18:54;;;;;;;10.10;5.60;;;;;;;;;;5014872;28;20960;-68
2023/07/09 06:21:22;;;;;;;11.33;10.37;;;;;;;;;;5014892;28;20498;-66
2023/07/09 06:23:50;;;;;;;8.80;7.90;;;;;;;;;;5014676;28;20903;-66
2023/07/09 06:26:16;;;;;;;38.83;34.47;;;;;;;;;;5014375;28;20407;-66
2023/07/09 06:28:42;;;;;;;8.67;6.70;;;;;;;;;;5014661;28;20514;-66
2023/07/09 06:31:08;;;;;;;5.90;5.50;;;;;;;;;;5014583;28;20453;-66
2023/07/09 06:33:34;;;;;;;5.43;5.00;;;;;;;;;;5013862;28;20439;-66
2023/07/09 06:36:01;;;;;;;10.53;5.90;;;;;;;;;;5014750;28;20897;-66
2023/07/09 06:38:28;;;;;;;5.73;5.20;;;;;;;;;;5014778;28;20439;-66
2023/07/09 06:40:56;;;;;;;5.67;5.37;;;;;;;;;;5014778;28;20414;-66
2023/07/09 06:43:22;;;;;;;5.77;5.30;;;;;;;;;;5013671;28;20423;-66
2023/07/09 06:45:49;;;;;;;6.33;4.50;;;;;;;;;;5014650;28;20420;-66
2023/07/09 06:48:15;;;;;;;5.53;5.00;;;;;;;;;;5014713;28;20435;-66
2023/07/09 06:50:41;;;;;;;5.63;5.13;;;;;;;;;;5014278;28;20917;-66
2023/07/09 06:53:07;;;;;;;5.10;4.70;;;;;;;;;;5014440;28;20424;-66
2023/07/09 06:55:33;;;;;;;6.27;5.47;;;;;;;;;;5014404;28;20468;-66
2023/07/09 06:58:02;;;;;;;10.10;4.60;;;;;;;;;;5014508;28;20810;-66
2023/07/09 07:00:28;;;;;;;5.30;5.10;;;;;;;;;;5014307;28;20481;-66
2023/07/09 07:02:56;;;;;;;4.83;4.40;;;;;;;;;;5014975;28;20428;-66
2023/07/09 07:05:22;;;;;;;8.40;6.27;;;;;;;;;;5014448;28;20475;-66
2023/07/09 07:07:48;;;;;;;6.37;4.87;;;;;;;;;;5014381;28;20846;-66
2023/07/09 07:10:14;;;;;;;8.70;5.33;;;;;;;;;;5013101;28;20481;-66
2023/07/09 07:12:47;;;;;;;14.47;13.10;;;;;;;;;;5014368;28;20948;-66
2023/07/09 07:15:14;;;;;;;5.10;4.60;;;;;;;;;;5013996;28;20475;-66
2023/07/09 07:17:40;;;;;;;6.70;5.03;;;;;;;;;;5013321;28;20808;-66
2023/07/09 07:20:07;;;;;;;8.70;5.80;;;;;;;;;;5014193;28;20422;-66
2023/07/09 07:22:33;;;;;;;5.00;4.70;;;;;;;;;;5014122;28;20512;-66
2023/07/09 07:24:59;;;;;;;6.10;4.90;;;;;;;;;;5013980;28;20411;-66
2023/07/09 07:27:25;;;;;;;6.93;6.20;;;;;;;;;;5014104;28;20410;-66
2023/07/09 07:29:51;;;;;;;6.63;5.00;;;;;;;;;;5014333;28;20424;-65
2023/07/09 07:32:17;;;;;;;4.97;4.40;;;;;;;;;;5014167;28;20432;-66
2023/07/09 07:34:43;;;;;;;5.03;4.30;;;;;;;;;;5014285;28;20469;-66
2023/07/09 07:37:12;;;;;;;6.30;5.13;;;;;;;;;;5014191;28;20416;-66
2023/07/09 07:39:37;;;;;;;5.23;4.90;;;;;;;;;;5014068;28;20433;-66
2023/07/09 07:42:04;;;;;;;10.90;5.57;;;;;;;;;;5014233;28;20816;-66
2023/07/09 07:44:32;;;;;;;6.23;5.43;;;;;;;;;;5013916;28;20967;-66
2023/07/09 07:46:58;;;;;;;9.83;5.07;;;;;;;;;;5014043;28;20432;-66
2023/07/09 07:49:24;;;;;;;14.20;9.70;;;;;;;;;;5013947;28;20444;-66
2023/07/09 07:51:50;;;;;;;4.93;4.53;;;;;;;;;;5014021;28;20974;-66
2023/07/09 07:54:18;;;;;;;6.63;5.00;;;;;;;;;;5012234;28;20469;-66
2023/07/09 07:56:44;;;;;;;7.00;4.70;;;;;;;;;;5013776;28;20421;-66
2023/07/09 07:59:10;;;;;;;8.73;4.37;;;;;;;;;;5013649;28;20416;-66
2023/07/09 08:01:41;;;;;;;5.20;4.80;;;;;;;;;;5013776;28;20478;-66
2023/07/09 08:04:07;;;;;;;5.17;4.67;;;;;;;;;;5013666;28;20869;-65
2023/07/09 08:06:33;;;;;;;4.33;4.23;;;;;;;;;;5013807;28;20495;-65
2023/07/09 08:08:59;;;;;;;4.93;4.63;;;;;;;;;;5013645;28;20547;-65
2023/07/09 08:11:27;;;;;;;5.43;4.97;;;;;;;;;;5013187;28;20416;-65
2023/07/09 08:13:56;;;;;;;8.07;4.57;;;;;;;;;;5013371;28;20440;-65
2023/07/09 08:16:22;;;;;;;5.17;4.77;;;;;;;;;;5013508;28;20441;-65
2023/07/09 08:18:51;;;;;;;4.80;4.40;;;;;;;;;;5013478;28;20464;-65
2023/07/09 08:21:17;;;;;;;5.37;4.43;;;;;;;;;;5013695;28;20423;-65
2023/07/09 08:23:45;;;;;;;4.20;3.93;;;;;;;;;;5012146;28;20444;-65
2023/07/09 08:26:12;;;;;;;16.70;4.30;;;;;;;;;;5012808;28;20893;-65
2023/07/09 08:28:38;;;;;;;4.00;3.80;;;;;;;;;;5013239;28;20421;-65
2023/07/09 08:31:04;;;;;;;5.00;4.50;;;;;;;;;;5013417;28;20420;-65
2023/07/09 08:33:30;;;;;;;4.23;3.93;;;;;;;;;;5012121;28;20425;-65
2023/07/09 08:35:56;;;;;;;3.90;3.73;;;;;;;;;;5011777;28;20475;-65
2023/07/09 08:38:22;;;;;;;4.90;4.70;;;;;;;;;;5013137;28;20393;-65
2023/07/09 08:40:55;;;;;;;4.43;4.23;;;;;;;;;;5012955;28;20456;-65
2023/07/09 08:43:34;;;;;;;4.77;4.47;;;;;;;;;;5012729;28;20451;-65
2023/07/09 08:46:08;;;;;;;4.40;4.07;;;;;;;;;;5013652;28;20425;-65
2023/07/09 08:48:35;;;;;;;5.43;4.90;;;;;;;;;;5013003;28;20496;-65
2023/07/09 08:51:21;;;;;;;7.93;7.37;;;;;;;;;;5013103;28;20412;-65
2023/07/09 08:53:57;;;;;;;4.50;4.20;;;;;;;;;;5011768;28;20429;-65
2023/07/09 08:56:24;;;;;;;4.80;4.50;;;;;;;;;;5012915;28;20416;-65
2023/07/09 08:58:51;;;;;;;7.60;4.40;;;;;;;;;;5012743;28;20407;-65
2023/07/09 09:01:26;;;;;;;7.33;4.50;;;;;;;;;;5012780;28;20440;-65
2023/07/09 09:04:03;;;;;;;4.77;4.57;;;;;;;;;;5012481;28;20463;-66
2023/07/09 09:06:30;;;;;;;4.30;4.20;;;;;;;;;;5012836;28;20861;-66
2023/07/09 09:09:09;;;;;;;8.57;4.13;;;;;;;;;;5012700;28;20438;-66
2023/07/09 09:11:45;;;;;;;10.40;4.30;;;;;;;;;;5012448;28;20428;-66
2023/07/09 09:14:32;;;;;;;6.87;4.20;;;;;;;;;;5012365;28;20444;-66
2023/07/09 09:17:01;;;;;;;4.47;4.20;;;;;;;;;;5012762;28;20408;-66
2023/07/09 09:19:37;;;;;;;3.97;3.70;;;;;;;;;;5012473;28;20444;-66
2023/07/09 09:22:06;;;;;;;7.60;4.20;;;;;;;;;;5012593;28;20393;-66
2023/07/09 09:24:55;;;;;;;4.70;4.30;;;;;;;;;;5012635;28;20443;-64
2023/07/09 09:27:20;;;;;;;4.20;3.90;;;;;;;;;;5012368;28;20461;-64
2023/07/09 09:29:46;;;;;;;4.60;4.30;;;;;;;;;;5012457;28;20908;-64
2023/07/09 09:32:23;;;;;;;3.70;3.53;;;;;;;;;;5012497;28;20420;-64
2023/07/09 09:34:49;;;;;;;5.93;3.80;;;;;;;;;;5012346;28;20827;-64
2023/07/09 09:37:22;;;;;;;4.40;4.10;;;;;;;;;;5013553;28;20503;-65
2023/07/09 09:39:48;;;;;;;5.50;5.00;;;;;;;;;;5016421;28;20431;-66
2023/07/09 09:42:19;;;;;;;4.27;3.80;;;;;;;;;;5016616;28;20888;-66
2023/07/09 09:44:45;;;;;;;4.13;3.83;;;;;;;;;;5016673;28;20440;-66
2023/07/09 09:47:12;;;;;;;5.63;4.07;;;;;;;;;;5016418;28;20424;-66
2023/07/09 09:49:44;;;;;;;4.70;4.40;;;;;;;;;;5016278;28;20424;-66
2023/07/09 09:52:19;;;;;;;4.60;3.30;;;;;;;;;;5016281;28;20420;-66
2023/07/09 09:54:49;;;;;;;4.23;3.93;;;;;;;;;;5016172;28;20472;-66
2023/07/09 09:57:25;;;;;;;5.93;3.77;;;;;;;;;;5015057;28;20496;-65
2023/07/09 09:59:54;;;;;;;3.60;3.40;;;;;;;;;;5015755;28;20428;-65
2023/07/09 10:02:21;;;;;;;4.13;3.80;;;;;;;;;;5016176;28;20468;-66
2023/07/09 10:04:48;;;;;;;4.30;4.00;;;;;;;;;;5016335;28;20459;-65
2023/07/09 10:07:18;;;;;;;4.40;4.03;;;;;;;;;;5015695;28;20420;-66
2023/07/09 10:09:47;;;;;;;4.00;3.73;;;;;;;;;;5015995;28;20415;-66
2023/07/09 10:12:16;;;;;;;11.77;4.07;;;;;;;;;;5014886;28;20847;-66
2023/07/09 10:14:50;;;;;;;4.47;3.30;;;;;;;;;;5015685;28;20464;-66
2023/07/09 10:17:28;;;;;;;3.97;3.67;;;;;;;;;;5016021;28;20417;-66
2023/07/09 10:19:59;;;;;;;3.83;3.60;;;;;;;;;;5015589;28;20417;-66
2023/07/09 10:23:02;;;;;;;3.93;3.77;;;;;;;;;;5014682;28;20417;-66
2023/07/09 10:25:30;;;;;;;4.00;3.83;;;;;;;;;;5013473;28;20483;-66
2023/07/09 10:28:05;;;;;;;3.67;3.30;;;;;;;;;;5015535;28;20433;-66
2023/07/09 10:30:40;;;;;;;6.40;3.90;;;;;;;;;;5015576;28;20475;-64
2023/07/09 10:33:13;;;;;;;4.20;3.77;;;;;;;;;;5015448;28;20416;-64
2023/07/09 10:36:01;;;;;;;4.03;3.83;;;;;;;;;;5015543;28;20476;-64
2023/07/09 10:38:34;;;;;;;3.60;3.30;;;;;;;;;;5014367;28;20436;-63
2023/07/09 10:41:03;;;;;;;3.87;3.60;;;;;;;;;;5015394;28;20851;-64
2023/07/09 10:43:32;;;;;;;4.20;3.90;;;;;;;;;;5015623;28;20467;-64
2023/07/09 10:46:00;;;;;;;4.97;3.53;;;;;;;;;;5015429;28;20479;-64
2023/07/09 10:48:40;;;;;;;4.17;3.50;;;;;;;;;;5015285;28;20468;-64
2023/07/09 10:51:11;;;;;;;3.87;3.27;;;;;;;;;;5015270;28;20416;-64
2023/07/09 10:53:43;;;;;;;4.73;3.60;;;;;;;;;;5015424;28;20436;-64
2023/07/09 10:56:12;;;;;;;3.50;3.30;;;;;;;;;;5015232;28;20477;-64
2023/07/09 10:58:50;;;;;;;4.10;3.70;;;;;;;;;;5013755;28;20883;-63
2023/07/09 11:01:20;;;;;;;5.63;4.20;;;;;;;;;;5015340;28;20867;-63
2023/07/09 11:03:50;;;;;;;3.93;3.63;;;;;;;;;;5015030;28;20420;-65
2023/07/09 11:06:28;;;;;;;6.63;3.57;;;;;;;;;;5014800;28;20452;-65
2023/07/09 11:08:56;;;;;;;4.97;3.83;;;;;;;;;;5014929;28;20405;-65
2023/07/09 11:11:38;;;;;;;3.40;3.30;;;;;;;;;;5014975;28;20766;-65
2023/07/09 11:14:10;;;;;;;3.40;3.30;;;;;;;;;;5014840;28;20428;-65
2023/07/09 11:16:39;;;;;;;7.70;3.70;;;;;;;;;;5014728;28;20436;-65
2023/07/09 11:19:06;;;;;;;4.23;3.83;;;;;;;;;;5014672;28;20415;-65
2023/07/09 11:21:33;;;;;;;7.60;3.93;;;;;;;;;;5014659;28;20524;-61
2023/07/09 11:24:03;;;;;;;3.73;3.33;;;;;;;;;;5014568;28;20486;-60
2023/07/09 11:26:30;;;;;;;3.90;3.70;;;;;;;;;;5014233;28;20443;-61
2023/07/09 11:29:10;;;;;;;4.27;3.70;;;;;;;;;;5014324;28;20425;-60
2023/07/09 11:31:45;;;;;;;3.57;3.40;;;;;;;;;;5014462;28;20513;-60
2023/07/09 11:34:16;;;;;;;4.63;4.07;;;;;;;;;;5014090;28;20914;-60
2023/07/09 11:37:02;;;;;;;3.90;3.60;;;;;;;;;;5014189;28;20982;-60
2023/07/09 11:39:28;;;;;;;4.10;3.80;;;;;;;;;;5014080;28;20490;-60
2023/07/09 11:41:54;;;;;;;4.40;4.03;;;;;;;;;;5014264;28;20455;-60
2023/07/09 11:44:31;;;;;;;5.13;3.70;;;;;;;;;;5014083;28;20790;-60
2023/07/09 11:47:15;;;;;;;6.10;4.00;;;;;;;;;;5014097;28;20803;-60
2023/07/09 11:49:47;;;;;;;4.43;3.87;;;;;;;;;;5014142;28;20409;-60
2023/07/09 11:52:15;;;;;;;4.20;3.83;;;;;;;;;;5014034;28;20439;-60
2023/07/09 11:54:42;;;;;;;4.57;4.27;;;;;;;;;;5013498;28;20969;-60
2023/07/09 11:57:12;;;;;;;4.80;3.90;;;;;;;;;;5013470;28;20517;-60
2023/07/09 11:59:41;;;;;;;4.70;4.30;;;;;;;;;;5013177;28;20511;-60
2023/07/09 12:02:18;;;;;;;4.30;4.00;;;;;;;;;;5011525;28;20432;-60
2023/07/09 12:04:48;;;;;;;3.37;3.27;;;;;;;;;;5013831;28;20418;-60
2023/07/09 12:07:16;;;;;;;4.40;4.00;;;;;;;;;;5013492;28;20441;-60
2023/07/09 12:09:49;;;;;;;6.83;5.43;;;;;;;;;;5013767;28;20431;-60
2023/07/09 12:12:19;;;;;;;4.13;3.80;;;;;;;;;;5014024;28;20858;-60
2023/07/09 12:14:45;;;;;;;4.63;4.23;;;;;;;;;;5013271;28;20914;-60
2023/07/09 12:17:11;;;;;;;3.83;3.53;;;;;;;;;;5013535;28;20461;-61
2023/07/09 12:19:40;;;;;;;7.33;4.47;;;;;;;;;;5013772;28;20542;-60
2023/07/09 12:22:07;;;;;;;3.30;3.00;;;;;;;;;;5013425;28;20206;-60
2023/07/09 12:24:37;;;;;;;4.67;3.77;;;;;;;;;;5013504;28;20424;-61
2023/07/09 12:27:04;;;;;;;3.60;3.50;;;;;;;;;;5013588;28;20448;-61
2023/07/09 12:29:34;;;;;;;4.40;4.07;;;;;;;;;;5013360;28;20440;-61
2023/07/09 12:32:04;;;;;;;4.43;4.07;;;;;;;;;;5013387;28;20499;-60
2023/07/09 12:34:31;;;;;;;4.07;3.77;;;;;;;;;;5013257;28;20468;-60
2023/07/09 12:36:58;;;;;;;4.47;4.07;;;;;;;;;;5011722;28;20425;-60
2023/07/09 12:39:25;;;;;;;3.90;3.80;;;;;;;;;;5013283;28;20458;-60
2023/07/09 12:41:54;;;;;;;3.57;3.47;;;;;;;;;;5011744;28;20480;-60
2023/07/09 12:44:21;;;;;;;4.10;3.90;;;;;;;;;;5012949;28;20420;-60
2023/07/09 12:46:48;;;;;;;5.20;3.67;;;;;;;;;;5012814;28;20441;-60
2023/07/09 12:49:25;;;;;;;4.03;3.83;;;;;;;;;;5013070;28;20421;-60
2023/07/09 12:51:52;;;;;;;4.10;3.80;;;;;;;;;;5013056;28;20436;-60
2023/07/09 12:54:22;;;;;;;3.33;3.23;;;;;;;;;;5012645;28;20575;-60
2023/07/09 12:56:52;;;;;;;5.30;3.70;;;;;;;;;;5012801;28;20515;-60
2023/07/09 12:59:22;;;;;;;3.70;3.60;;;;;;;;;;5012798;28;20416;-60
2023/07/09 13:01:49;;;;;;;9.20;3.37;;;;;;;;;;5012541;28;20531;-60
2023/07/09 13:04:15;;;;;;;3.67;3.40;;;;;;;;;;5012954;28;20409;-60
2023/07/09 13:06:44;;;;;;;3.30;3.20;;;;;;;;;;5012761;28;20443;-59
2023/07/09 13:09:20;;;;;;;4.60;3.13;;;;;;;;;;5013180;28;20243;-60
2023/07/09 13:11:50;;;;;;;3.70;3.50;;;;;;;;;;5012429;28;20527;-61
2023/07/09 13:14:18;;;;;;;3.70;3.50;;;;;;;;;;5011457;28;20527;-61
2023/07/09 13:16:44;;;;;;;4.43;3.90;;;;;;;;;;5012288;28;20483;-61
2023/07/09 13:19:10;;;;;;;4.40;3.83;;;;;;;;;;5012756;28;20393;-62
2023/07/09 13:21:38;;;;;;;4.17;3.13;;;;;;;;;;5012127;28;20190;-61
2023/07/09 13:24:15;;;;;;;4.07;3.63;;;;;;;;;;5012852;28;20767;-61
2023/07/09 13:26:41;;;;;;;4.10;3.70;;;;;;;;;;5012417;28;20880;-61
2023/07/09 13:29:24;;;;;;;3.93;3.17;;;;;;;;;;5012323;28;20416;-60
2023/07/09 13:31:50;;;;;;;3.83;3.67;;;;;;;;;;5012487;28;20186;-60
2023/07/09 13:34:24;;;;;;;4.13;3.90;;;;;;;;;;5012118;28;20413;-61
2023/07/09 13:36:50;;;;;;;4.13;3.90;;;;;;;;;;5012376;28;20495;-60
2023/07/09 13:39:17;;;;;;;4.07;3.97;;;;;;;;;;5012453;28;20421;-60
2023/07/09 13:41:47;;;;;;;5.00;4.60;;;;;;;;;;5012382;28;20887;-60
2023/07/09 13:44:16;;;;;;;3.70;3.47;;;;;;;;;;5012637;28;20409;-61
2023/07/09 13:46:42;;;;;;;3.70;3.40;;;;;;;;;;5012445;28;20405;-60
2023/07/09 13:49:09;;;;;;;4.10;3.80;;;;;;;;;;5012498;28;20440;-60
2023/07/09 13:51:35;;;;;;;4.33;4.13;;;;;;;;;;5010770;28;20412;-60
2023/07/09 13:54:03;;;;;;;3.77;3.67;;;;;;;;;;5012184;28;20492;-60
2023/07/09 13:56:29;;;;;;;4.70;3.90;;;;;;;;;;5012188;28;20421;-60
2023/07/09 13:58:55;;;;;;;4.00;3.80;;;;;;;;;;5012261;28;20407;-60
2023/07/09 14:01:23;;;;;;;4.03;3.67;;;;;;;;;;5010704;28;20428;-60
2023/07/09 14:03:49;;;;;;;4.33;3.97;;;;;;;;;;5010777;28;20417;-60
2023/07/09 14:06:16;;;;;;;9.40;8.60;;;;;;;;;;5012591;28;20415;-60
2023/07/09 14:08:44;;;;;;;4.30;4.00;;;;;;;;;;5011053;28;20206;-60
2023/07/09 14:11:14;;;;;;;4.50;4.30;;;;;;;;;;5012256;28;20409;-60
2023/07/09 14:13:41;;;;;;;6.83;3.83;;;;;;;;;;5012148;28;20442;-60
2023/07/09 14:16:07;;;;;;;4.70;4.30;;;;;;;;;;5012286;28;20468;-60
2023/07/09 14:18:33;;;;;;;4.40;4.00;;;;;;;;;;5012102;28;20807;-60
2023/07/09 14:20:59;;;;;;;4.47;4.07;;;;;;;;;;5012059;28;20409;-60
2023/07/09 14:23:27;;;;;;;8.57;4.30;;;;;;;;;;5012211;28;20409;-60
2023/07/09 14:25:53;;;;;;;7.93;3.90;;;;;;;;;;5015133;28;20413;-60
2023/07/09 14:28:24;;;;;;;4.43;3.83;;;;;;;;;;5015713;28;20444;-60
2023/07/09 14:30:50;;;;;;;3.70;3.40;;;;;;;;;;5015360;28;20205;-60
2023/07/09 14:33:20;;;;;;;4.17;3.87;;;;;;;;;;5015605;28;20447;-60
2023/07/09 14:35:47;;;;;;;4.50;3.73;;;;;;;;;;5015526;28;20947;-60
2023/07/09 14:38:13;;;;;;;4.97;4.57;;;;;;;;;;5015473;28;20800;-60
2023/07/09 14:40:39;;;;;;;4.73;3.80;;;;;;;;;;5015919;28;20488;-61
2023/07/09 14:43:05;;;;;;;4.93;4.30;;;;;;;;;;5015416;28;20256;-61
2023/07/09 14:45:32;;;;;;;6.73;4.20;;;;;;;;;;5016087;28;20189;-61
2023/07/09 14:47:58;;;;;;;4.53;4.00;;;;;;;;;;5016746;28;20433;-61
2023/07/09 14:50:24;;;;;;;4.40;4.10;;;;;;;;;;5015448;28;20405;-61
2023/07/09 14:52:50;;;;;;;4.30;4.00;;;;;;;;;;5015076;28;20417;-61
2023/07/09 14:55:20;;;;;;;4.00;3.70;;;;;;;;;;5015202;28;20472;-61
2023/07/09 14:57:49;;;;;;;5.03;4.10;;;;;;;;;;5014992;28;20559;-61
2023/07/09 15:00:16;;;;;;;5.43;3.70;;;;;;;;;;5014950;28;20912;-61